createdAt,value
2023-02-19T00:01:35.387Z,98159.69
2023-02-19T00:04:57.168Z,98160.44
2023-02-19T00:08:18.965Z,98148.75
2023-02-19T00:11:41.886Z,98161.34
2023-02-19T00:15:05.200Z,98174.19
2023-02-19T00:18:27.005Z,98172.44
2023-02-19T00:21:49.562Z,98175.09
2023-02-19T00:25:11.934Z,98187.81
2023-02-19T00:28:34.499Z,98164.81
2023-02-19T00:31:58.088Z,98167.41
2023-02-19T00:35:20.580Z,98182.72
2023-02-19T00:38:43.521Z,98183.63
2023-02-19T00:42:05.623Z,98193.84
2023-02-19T00:45:27.549Z,98189.47
2023-02-19T00:48:52.649Z,98180.84
2023-02-19T00:52:14.417Z,98185.16
2023-02-19T00:55:36.367Z,98182.59
2023-02-19T00:58:58.367Z,98178.25
2023-02-19T01:02:20.412Z,98173.88
2023-02-19T01:05:43.627Z,98157.50
2023-02-19T01:09:07.246Z,98184.16
2023-02-19T01:12:29.006Z,98179.78
2023-02-19T01:15:50.861Z,98181.47
2023-02-19T01:19:12.703Z,98177.06
2023-02-19T01:22:36.047Z,98174.75
2023-02-19T01:25:58.165Z,98191.59
2023-02-19T01:29:20.089Z,98191.66
2023-02-19T01:32:41.977Z,98190.81
2023-02-19T01:36:05.492Z,98198.53
2023-02-19T01:39:28.666Z,98202.75
2023-02-19T01:42:50.869Z,98200.19
2023-02-19T01:46:12.784Z,98198.59
2023-02-19T01:49:39.607Z,98204.50
2023-02-19T01:53:06.190Z,98201.09
2023-02-19T01:56:31.410Z,98204.59
2023-02-19T01:59:56.483Z,98208.03
2023-02-19T02:03:19.075Z,98207.16
2023-02-19T02:06:46.102Z,98212.22
2023-02-19T02:10:22.993Z,98219.09
2023-02-19T02:13:46.745Z,98220.00
2023-02-19T02:17:18.533Z,98219.22
2023-02-19T02:20:58.328Z,98216.56
2023-02-19T02:24:59.881Z,98227.75
2023-02-19T02:28:49.203Z,98225.25
2023-02-19T02:32:14.742Z,98226.97
2023-02-19T02:35:43.751Z,98227.19
2023-02-19T02:39:08.172Z,98241.63
2023-02-19T02:42:29.937Z,98236.41
2023-02-19T02:45:51.751Z,98229.63
2023-02-19T02:49:22.592Z,98233.97
2023-02-19T02:53:06.721Z,98241.69
2023-02-19T02:56:30.275Z,98246.00
2023-02-19T02:59:52.317Z,98250.31
2023-02-19T03:03:14.558Z,98251.09
2023-02-19T03:06:39.448Z,98258.78
2023-02-19T03:10:03.066Z,98255.34
2023-02-19T03:13:49.554Z,98258.84
2023-02-19T03:17:34.936Z,98260.56
2023-02-19T03:20:59.633Z,98259.09
2023-02-19T03:24:45.875Z,98267.50
2023-02-19T03:28:11.255Z,98268.28
2023-02-19T03:31:35.315Z,98266.66
2023-02-19T03:35:01.570Z,98265.88
2023-02-19T03:38:27.986Z,98277.97
2023-02-19T03:42:00.050Z,98285.59
2023-02-19T03:45:49.848Z,98276.38
2023-02-19T03:49:23.820Z,98278.16
2023-02-19T03:52:56.021Z,98281.63
2023-02-19T03:56:23.727Z,98290.28
2023-02-19T03:59:52.898Z,98285.97
2023-02-19T04:03:20.708Z,98296.31
2023-02-19T04:06:44.926Z,98301.47
2023-02-19T04:10:09.253Z,98299.78
2023-02-19T04:13:34.972Z,98297.16
2023-02-19T04:17:02.011Z,98297.28
2023-02-19T04:20:26.385Z,98299.03
2023-02-19T04:23:48.787Z,98291.34
2023-02-19T04:27:11.573Z,98299.06
2023-02-19T04:30:33.926Z,98292.31
2023-02-19T04:33:57.194Z,98299.19
2023-02-19T04:37:19.281Z,98292.38
2023-02-19T04:40:41.206Z,98295.84
2023-02-19T04:44:02.978Z,98295.84
2023-02-19T04:47:24.825Z,98295.84
2023-02-19T04:50:48.001Z,98295.91
2023-02-19T04:54:10.220Z,98305.41
2023-02-19T04:57:31.820Z,98307.19
2023-02-19T05:00:54.347Z,98302.19
2023-02-19T05:04:16.182Z,98306.41
2023-02-19T05:07:39.343Z,98309.94
2023-02-19T05:11:02.017Z,98309.09
2023-02-19T05:14:23.882Z,98315.97
2023-02-19T05:17:45.562Z,98319.41
2023-02-19T05:21:08.202Z,98316.03
2023-02-19T05:24:31.753Z,98317.75
2023-02-19T05:28:14.329Z,98322.00
2023-02-19T05:31:36.178Z,98325.47
2023-02-19T05:34:57.984Z,98328.22
2023-02-19T05:38:20.113Z,98323.97
2023-02-19T05:41:43.602Z,98318.06
2023-02-19T05:45:06.006Z,98326.59
2023-02-19T05:48:27.871Z,98337.84
2023-02-19T05:51:51.977Z,98332.78
2023-02-19T05:55:13.985Z,98337.09
2023-02-19T05:58:37.275Z,98348.09
2023-02-19T06:01:59.615Z,98320.47
2023-02-19T06:05:21.874Z,98339.66
2023-02-19T06:08:44.231Z,98346.53
2023-02-19T06:12:08.164Z,98344.00
2023-02-19T06:15:31.618Z,98357.63
2023-02-19T06:18:54.053Z,98347.41
2023-02-19T06:22:16.668Z,98344.81
2023-02-19T06:25:38.666Z,98356.06
2023-02-19T06:29:00.722Z,98356.81
2023-02-19T06:32:24.304Z,98361.03
2023-02-19T06:35:46.459Z,98367.78
2023-02-19T06:39:08.476Z,98366.97
2023-02-19T06:42:33.166Z,98363.63
2023-02-19T06:45:55.301Z,98370.34
2023-02-19T06:49:18.922Z,98374.59
2023-02-19T06:52:40.728Z,98368.66
2023-02-19T06:56:05.810Z,98372.91
2023-02-19T06:59:28.013Z,98369.44
2023-02-19T07:02:56.577Z,98366.06
2023-02-19T07:06:20.208Z,98366.97
2023-02-19T07:09:42.040Z,98367.56
2023-02-19T07:13:03.671Z,98374.31
2023-02-19T07:16:25.627Z,98369.94
2023-02-19T07:19:47.698Z,98369.22
2023-02-19T07:23:11.103Z,98374.13
2023-02-19T07:26:33.314Z,98375.78
2023-02-19T07:29:55.134Z,98377.59
2023-02-19T07:33:17.187Z,98374.13
2023-02-19T07:36:39.120Z,98380.88
2023-02-19T07:40:02.914Z,98381.56
2023-02-19T07:43:25.268Z,98386.47
2023-02-19T07:46:47.045Z,98383.88
2023-02-19T07:50:09.566Z,98397.44
2023-02-19T07:53:32.167Z,98398.16
2023-02-19T07:56:55.566Z,98393.09
2023-02-19T08:00:19.254Z,98405.94
2023-02-19T08:03:41.265Z,98404.09
2023-02-19T08:07:03.281Z,98402.34
2023-02-19T08:10:42.739Z,98383.09
2023-02-19T08:14:06.173Z,98401.31
2023-02-19T08:17:28.259Z,98405.41
2023-02-19T08:20:49.932Z,98407.72
2023-02-19T08:24:12.125Z,98400.84
2023-02-19T08:27:33.880Z,98411.00
2023-02-19T08:31:03.351Z,98405.00
2023-02-19T08:34:25.361Z,98403.38
2023-02-19T08:37:47.575Z,98409.94
2023-02-19T08:41:11.022Z,98410.84
2023-02-19T08:44:34.166Z,98413.53
2023-02-19T08:47:57.504Z,98422.97
2023-02-19T08:51:19.483Z,98416.84
2023-02-19T08:54:41.625Z,98421.88
2023-02-19T08:58:03.442Z,98413.19
2023-02-19T09:01:25.174Z,98412.09
2023-02-19T09:04:48.526Z,98423.13
2023-02-19T09:08:10.841Z,98419.81
2023-02-19T09:11:33.128Z,98425.66
2023-02-19T09:14:55.543Z,98425.81
2023-02-19T09:18:17.860Z,98397.28
2023-02-19T09:21:41.050Z,98427.53
2023-02-19T09:25:03.232Z,98423.91
2023-02-19T09:28:24.958Z,98416.16
2023-02-19T09:31:47.215Z,98428.13
2023-02-19T09:35:09.421Z,98430.59
2023-02-19T09:38:33.086Z,98418.66
2023-02-19T09:41:59.282Z,98409.69
2023-02-19T09:45:24.438Z,98424.59
2023-02-19T09:48:46.431Z,98417.13
2023-02-19T09:52:13.908Z,98432.94
2023-02-19T09:55:40.966Z,98426.25
2023-02-19T09:59:02.971Z,98425.53
2023-02-19T10:02:27.751Z,98422.19
2023-02-19T10:05:50.125Z,98413.88
2023-02-19T10:09:22.214Z,98429.19
2023-02-19T10:12:50.757Z,98435.63
2023-02-19T10:16:17.694Z,98443.88
2023-02-19T10:19:39.487Z,98437.13
2023-02-19T10:23:05.319Z,98437.91
2023-02-19T10:26:27.783Z,98427.63
2023-02-19T10:29:56.048Z,98427.41
2023-02-19T10:33:18.329Z,98435.81
2023-02-19T10:36:45.355Z,98432.16
2023-02-19T10:40:16.651Z,98426.19
2023-02-19T10:43:42.500Z,98426.75
2023-02-19T10:47:07.323Z,98441.09
2023-02-19T10:50:32.660Z,98438.66
2023-02-19T10:54:06.903Z,98446.13
2023-02-19T10:57:33.474Z,98448.88
2023-02-19T11:01:20.873Z,98458.81
2023-02-19T11:04:44.220Z,98446.22
2023-02-19T11:08:06.381Z,98452.97
2023-02-19T11:11:34.833Z,98457.41
2023-02-19T11:14:56.919Z,98445.06
2023-02-19T11:18:23.867Z,98456.06
2023-02-19T11:21:47.208Z,98451.03
2023-02-19T11:25:21.107Z,98440.66
2023-02-19T11:28:45.554Z,98453.09
2023-02-19T11:32:26.660Z,98464.44
2023-02-19T11:35:49.531Z,98469.31
2023-02-19T11:39:28.156Z,98471.78
2023-02-19T11:43:00.030Z,98470.94
2023-02-19T11:46:27.954Z,98471.78
2023-02-19T11:49:59.908Z,98470.44
2023-02-19T11:53:27.476Z,98487.66
2023-02-19T11:56:58.251Z,98491.75
2023-02-19T12:00:27.374Z,98485.88
2023-02-19T12:04:11.845Z,98490.03
2023-02-19T12:08:08.400Z,98489.06
2023-02-19T12:11:47.235Z,98500.94
2023-02-19T12:15:33.286Z,98504.22
2023-02-19T12:19:32.107Z,98517.94
2023-02-19T12:23:04.757Z,98502.00
2023-02-19T12:26:31.545Z,98504.78
2023-02-19T12:30:07.301Z,98518.31
2023-02-19T12:33:57.256Z,98529.03
2023-02-19T12:37:31.566Z,98527.59
2023-02-19T12:41:16.266Z,98545.88
2023-02-19T12:44:43.668Z,98549.38
2023-02-19T12:48:14.060Z,98550.66
2023-02-19T12:51:42.672Z,98555.81
2023-02-19T12:55:22.528Z,98554.97
2023-02-19T12:58:49.463Z,98565.19
2023-02-19T13:02:19.459Z,98575.66
2023-02-19T13:05:48.285Z,98577.53
2023-02-19T13:09:14.987Z,98580.22
2023-02-19T13:12:40.848Z,98583.00
2023-02-19T13:16:10.043Z,98582.00
2023-02-19T13:19:32.631Z,98593.91
2023-02-19T13:23:20.751Z,98588.19
2023-02-19T13:27:21.445Z,98595.91
2023-02-19T13:31:10.819Z,98595.13
2023-02-19T13:34:40.729Z,98605.31
2023-02-19T13:41:36.432Z,98603.28
2023-02-19T13:44:59.182Z,98609.28
2023-02-19T13:48:29.879Z,98600.94
2023-02-19T13:51:53.015Z,98614.53
2023-02-19T13:55:54.510Z,98636.00
2023-02-19T13:59:41.803Z,98643.91
2023-02-19T14:03:30.322Z,98644.94
2023-02-19T14:07:38.147Z,98652.72
2023-02-19T14:11:05.078Z,98650.31
2023-02-19T14:14:29.273Z,98658.13
2023-02-19T14:17:51.654Z,98659.97
2023-02-19T14:21:24.973Z,98655.63
2023-02-19T14:24:47.423Z,98666.72
2023-02-19T14:28:22.760Z,98659.31
2023-02-19T14:31:47.021Z,98672.03
2023-02-19T14:35:20.306Z,98680.81
2023-02-19T14:38:49.059Z,98680.16
2023-02-19T14:42:18.814Z,98690.41
2023-02-19T14:45:44.573Z,98700.69
2023-02-19T14:49:15.221Z,98703.53
2023-02-19T14:52:43.613Z,98702.22
2023-02-19T14:56:15.544Z,98705.06
2023-02-19T14:59:37.914Z,98717.09
2023-02-19T15:03:00.270Z,98701.44
2023-02-19T15:06:23.828Z,98722.56
2023-02-19T15:09:49.156Z,98720.84
2023-02-19T15:13:17.565Z,98715.91
2023-02-19T15:16:39.274Z,98731.16
2023-02-19T15:20:05.832Z,98725.25
2023-02-19T15:23:30.543Z,98727.06
2023-02-19T15:26:54.503Z,98726.97
2023-02-19T15:30:29.732Z,98743.75
2023-02-19T15:33:52.489Z,98747.16
2023-02-19T15:37:15.695Z,98746.31
2023-02-19T15:40:38.276Z,98754.75
2023-02-19T15:44:14.623Z,98748.88
2023-02-19T15:47:44.043Z,98753.28
2023-02-19T15:51:10.534Z,98766.72
2023-02-19T15:54:38.732Z,98771.06
2023-02-19T15:58:08.781Z,98780.50
2023-02-19T16:01:32.087Z,98778.03
2023-02-19T16:04:55.169Z,98780.75
2023-02-19T16:08:23.753Z,98797.88
2023-02-19T16:11:51.474Z,98809.88
2023-02-19T16:15:15.285Z,98802.22
2023-02-19T16:18:37.924Z,98801.44
2023-02-19T16:22:02.444Z,98808.25
2023-02-19T16:25:32.264Z,98811.63
2023-02-19T16:28:55.963Z,98817.66
2023-02-19T16:32:18.820Z,98807.59
2023-02-19T16:35:41.650Z,98817.78
2023-02-19T16:39:26.117Z,98826.13
2023-02-19T16:43:26.454Z,98827.03
2023-02-19T16:46:48.817Z,98838.13
2023-02-19T16:50:15.533Z,98846.66
2023-02-19T16:53:37.555Z,98846.66
2023-02-19T16:57:00.984Z,98839.91
2023-02-19T17:00:25.819Z,98854.34
2023-02-19T17:03:48.427Z,98852.69
2023-02-19T17:07:12.891Z,98848.63
2023-02-19T17:10:34.620Z,98849.47
2023-02-19T17:13:57.932Z,98863.84
2023-02-19T17:17:19.946Z,98859.72
2023-02-19T17:20:42.210Z,98864.69
2023-02-19T17:24:04.882Z,98869.06
2023-02-19T17:27:26.651Z,98878.47
2023-02-19T17:30:49.832Z,98886.16
2023-02-19T17:34:12.092Z,98886.25
2023-02-19T17:37:33.976Z,98886.38
2023-02-19T17:40:55.889Z,98880.63
2023-02-19T17:44:18.036Z,98890.84
2023-02-19T17:47:41.849Z,98883.19
2023-02-19T17:51:04.031Z,98901.06
2023-02-19T17:54:25.883Z,98907.84
2023-02-19T17:57:47.999Z,98901.19
2023-02-19T18:01:10.723Z,98911.34
2023-02-19T18:04:35.552Z,98910.53
2023-02-19T18:07:58.962Z,98919.09
2023-02-19T18:11:22.431Z,98930.34
2023-02-19T18:14:46.827Z,98904.34
2023-02-19T18:18:10.014Z,98933.06
2023-02-19T18:21:33.859Z,98949.28
2023-02-19T18:24:55.928Z,98957.06
2023-02-19T18:28:18.289Z,98945.34
2023-02-19T18:31:40.680Z,98937.19
2023-02-19T18:35:03.066Z,98962.53
2023-02-19T18:38:26.488Z,98970.31
2023-02-19T18:41:49.177Z,98972.13
2023-02-19T18:45:11.456Z,98968.81
2023-02-19T18:48:33.681Z,98974.81
2023-02-19T18:51:55.598Z,98973.16
2023-02-19T18:55:20.518Z,98985.13
2023-02-19T18:58:43.658Z,98979.25
2023-02-19T19:02:08.045Z,98987.84
2023-02-19T19:05:29.816Z,98992.91
2023-02-19T19:08:51.738Z,98998.03
2023-02-19T19:12:15.829Z,99009.09
2023-02-19T19:15:39.843Z,98989.72
2023-02-19T19:19:01.972Z,99012.56
2023-02-19T19:22:25.320Z,99018.59
2023-02-19T19:25:47.422Z,99026.34
2023-02-19T19:29:10.797Z,99028.09
2023-02-19T19:32:32.943Z,99036.59
2023-02-19T19:35:55.364Z,99035.84
2023-02-19T19:39:17.750Z,99028.22
2023-02-19T19:42:39.783Z,99035.97
2023-02-19T19:46:05.346Z,99039.41
2023-02-19T19:49:27.220Z,99038.56
2023-02-19T19:52:49.737Z,99046.28
2023-02-19T19:56:11.585Z,99060.75
2023-02-19T19:59:33.518Z,99056.56
2023-02-19T20:02:57.206Z,99068.50
2023-02-19T20:06:26.479Z,99062.53
2023-02-19T20:09:50.045Z,99062.59
2023-02-19T20:13:12.622Z,99069.41
2023-02-19T20:16:34.857Z,99079.69
2023-02-19T20:19:58.400Z,99076.25
2023-02-19T20:23:20.581Z,99082.31
2023-02-19T20:26:43.768Z,99095.06
2023-02-19T20:30:06.742Z,99102.75
2023-02-19T20:33:28.927Z,99104.50
2023-02-19T20:36:52.613Z,99104.44
2023-02-19T20:40:17.549Z,99101.06
2023-02-19T20:43:39.607Z,99112.09
2023-02-19T20:47:02.055Z,99105.31
2023-02-19T20:50:25.876Z,99111.22
2023-02-19T20:53:49.478Z,99111.44
2023-02-19T20:57:12.301Z,99130.03
2023-02-19T21:00:34.315Z,99132.66
2023-02-19T21:03:56.393Z,99138.66
2023-02-19T21:07:18.467Z,99141.22
2023-02-19T21:10:42.084Z,99147.25
2023-02-19T21:14:04.465Z,99122.88
2023-02-19T21:17:26.888Z,99151.66
2023-02-19T21:20:48.775Z,99171.25
2023-02-19T21:24:13.333Z,99178.88
2023-02-19T21:27:37.067Z,99175.59
2023-02-19T21:30:58.930Z,99159.59
2023-02-19T21:34:22.288Z,99186.66
2023-02-19T21:37:44.876Z,99182.50
2023-02-19T21:41:06.814Z,99187.63
2023-02-19T21:44:29.988Z,99186.03
2023-02-19T21:47:52.374Z,99205.59
2023-02-19T21:51:14.334Z,99213.28
2023-02-19T21:54:36.448Z,99226.13
2023-02-19T21:57:58.480Z,99219.38
2023-02-19T22:01:26.990Z,99233.00
2023-02-19T22:04:54.255Z,99239.84
2023-02-19T22:08:17.701Z,99222.19
2023-02-19T22:11:39.928Z,99241.69
2023-02-19T22:15:02.088Z,99245.03
2023-02-19T22:18:25.955Z,99240.75
2023-02-19T22:21:48.261Z,99249.31
2023-02-19T22:25:10.380Z,99258.69
2023-02-19T22:28:32.477Z,99261.22
2023-02-19T22:31:54.693Z,99264.69
2023-02-19T22:35:19.155Z,99263.13
2023-02-19T22:38:41.006Z,99277.47
2023-02-19T22:42:02.923Z,99272.44
2023-02-19T22:45:25.790Z,99278.44
2023-02-19T22:48:48.097Z,99282.69
2023-02-19T22:52:11.880Z,99253.19
2023-02-19T22:55:33.666Z,99293.81
2023-02-19T22:58:57.743Z,99304.94
2023-02-19T23:02:19.835Z,99310.88
2023-02-19T23:05:41.926Z,99301.53
2023-02-19T23:09:08.996Z,99310.91
2023-02-19T23:12:32.445Z,99316.88
2023-02-19T23:15:54.253Z,99315.25
2023-02-19T23:19:17.755Z,99313.50
2023-02-19T23:22:40.156Z,99327.22
2023-02-19T23:26:04.172Z,99330.56
2023-02-19T23:29:28.282Z,99329.75
2023-02-19T23:32:50.634Z,99331.50
2023-02-19T23:36:13.494Z,99340.84
2023-02-19T23:39:35.936Z,99337.47
2023-02-19T23:42:59.580Z,99319.72
2023-02-19T23:46:21.766Z,99351.97
2023-02-19T23:49:43.388Z,99357.13
2023-02-19T23:53:05.700Z,99352.06
2023-02-19T23:56:29.042Z,99357.97
2023-02-19T23:59:52.264Z,99358.84
